Affton, Missouri
Current Conditions -  °F | °C
As of 2:53 AM on Monday 22 Dec 2014 (Local Time) from KCPS Reporting Station
Light Rain Light Rain  
Wind Chill: 36°   Ceiling: 5500
Heat Index: 41°   Visibility: 10mi
Dew Point: 32°   Wind: 8mph
Humidity: 70%   Direction: 120°ESE
Pressure: 29.87"   Gusts: NA
Location:  38.55°N, 90.33°W
Report Text: KCPS 220853Z AUTO 12007KT 10SM -RA OVC055 05/00 A2987 RMK AO2 RAB43 SLP118 P0000 60000 T00500000 58020 TSNO
Loading
Personal Weather Stations






























Interactive Weather Map New forecast layout! Learn more

10-Day Weather Forecast

Advertisements
Track Severe Weather on mobile